mechnet.com.cn alexa rank chart, mechnet.com.cn alexa rank daily changes

mechnet.com.cn alexa rank chart, mechnet.com.cn alexa rank daily changes

mechnet.com.cn
Actual rank:
645 900

RANK HISTORY

Date Rank Diff
2017/11/20 645 900 -2 855
2017/11/19 648 755 +120 430
2017/11/18 528 325 -463
2017/11/17 528 788 +2 159
2017/11/16 526 629 +2 211
2017/11/15 524 418 +1 263
2017/11/14 523 155 -1 613
2017/11/13 524 768 -1 827
2017/11/12 526 595 -449
2017/11/11 527 044 +80 728
2017/11/10 446 316 +1 718
2017/11/09 444 598 +2 136
2017/11/08 442 462 +1 291
2017/11/07 441 171 +70 462
2017/11/06 370 709 -64 790
2017/11/05 435 499 +108
2017/11/04 435 391 -2 371
2017/11/03 437 762 -1 340
2017/11/02 439 102 +622
2017/11/01 438 480 +12 060
2017/10/31 426 420 -1 137
2017/10/30 427 557 -1 999
2017/10/29 429 556 -963
2017/10/28 430 519 -76 002
2017/10/27 506 521 +57 612
2017/10/26 448 909 +1 372
2017/10/25 447 537 +129 956
2017/10/24 317 581 -827
2017/10/23 318 408 -1 338
2017/10/22 319 746 -716
2017/10/21 320 462 +26 786
2017/10/20 293 676 -239
2017/10/19 293 915 -28 940
2017/10/18 322 855 +33 404
2017/10/17 289 451 -869
2017/10/16 290 320 -1 582
2017/10/14 291 902 -377
2017/10/13 292 279 -398
2017/10/12 292 677 +31 623
2017/10/11 261 054 -21 729
2017/10/10 282 783 -778
2017/10/09 283 561 -1 358
2017/10/08 284 919 -726
2017/10/07 285 645 -38 434
2017/10/06 324 079 -518
2017/10/05 324 597 +860
2017/10/04 323 737 +37 589
2017/10/03 286 148 -751
2017/10/02 286 899 -1 192
2017/10/01 288 091 -8 885
2017/09/30 296 976 -498
2017/09/29 297 474 +1 159
2017/09/28 296 315 +1 227
2017/09/27 295 088 -60 703
2017/09/26 355 791 +39 868
2017/09/25 315 923 -114 972
2017/09/24 430 895 +51 175
2017/09/23 379 720 +41 539
2017/09/22 338 181

WIDGET FOR YOUR SITE

DOMAINS WITH THE NEAREST RANK

Domain Rank
valokafor.com 645 895
vape29.com 645 896
hope-sthlm.com 645 897
ibtuu.com 645 898
megamatma.pl 645 899
mechnet.com.cn 645 900
ivea.ru 645 901
designmiami.com 645 902
handle.co.uk 645 903
vrach-sam.ru 645 904
kinetictextanimator.com 645 905

DOMAINS WITH THE NEAREST RANK BY TLD .com.cn

Domain Rank
dayday.com.cn 644 116
hach.com.cn 644 407
360shop.com.cn 644 741
cabit.com.cn 645 003
blvd.com.cn 645 836
mechnet.com.cn 645 900
rpec.com.cn 646 102
ngmchina.com.cn 646 213
guangtai.com.cn 646 569
qrcb.com.cn 646 964
aviva-cofco.com.cn 647 026